createdAt,value
2018-02-15T00:02:11.390Z,19.35
2018-02-15T00:04:38.934Z,14.00
2018-02-15T00:07:06.497Z,20.12
2018-02-15T00:09:34.030Z,18.50
2018-02-15T00:12:01.641Z,18.90
2018-02-15T00:14:29.161Z,18.42
2018-02-15T00:16:56.701Z,12.00
2018-02-15T00:19:24.226Z,13.70
2018-02-15T00:21:51.752Z,15.43
2018-02-15T00:24:19.275Z,16.00
2018-02-15T00:26:46.800Z,15.40
2018-02-15T00:29:14.441Z,16.65
2018-02-15T00:31:41.985Z,15.15
2018-02-15T00:34:09.524Z,15.73
2018-02-15T00:36:37.054Z,17.77
2018-02-15T00:39:04.608Z,12.80
2018-02-15T00:41:32.115Z,11.93
2018-02-15T00:43:59.622Z,17.35
2018-02-15T00:46:27.154Z,16.02
2018-02-15T00:48:54.680Z,13.77
2018-02-15T00:51:22.200Z,17.58
2018-02-15T00:53:49.716Z,15.63
2018-02-15T00:56:17.252Z,13.35
2018-02-15T00:58:44.787Z,11.85
2018-02-15T01:01:12.310Z,18.92
2018-02-15T01:03:39.852Z,10.75
2018-02-15T01:06:07.485Z,7.45
2018-02-15T01:08:35.010Z,7.55
2018-02-15T01:11:02.516Z,8.43
2018-02-15T01:13:30.055Z,8.20
2018-02-15T01:15:57.577Z,7.07
2018-02-15T01:18:25.097Z,7.32
2018-02-15T01:20:52.620Z,6.23
2018-02-15T01:23:20.125Z,7.27
2018-02-15T01:25:47.640Z,6.10
2018-02-15T01:28:15.161Z,7.70
2018-02-15T01:30:42.678Z,6.60
2018-02-15T01:33:10.188Z,6.37
2018-02-15T01:35:37.713Z,7.63
2018-02-15T01:38:05.230Z,6.47
2018-02-15T01:40:32.745Z,7.13
2018-02-15T01:43:00.261Z,6.67
2018-02-15T01:45:27.786Z,5.90
2018-02-15T01:47:55.306Z,5.70
2018-02-15T01:50:22.847Z,8.30
2018-02-15T01:52:50.377Z,5.50
2018-02-15T01:55:17.888Z,7.40
2018-02-15T01:57:45.400Z,5.20
2018-02-15T02:00:12.925Z,5.60
2018-02-15T02:02:40.470Z,7.07
2018-02-15T02:05:08.012Z,11.10
2018-02-15T02:07:35.540Z,8.63
2018-02-15T02:10:03.080Z,12.00
2018-02-15T02:12:30.612Z,8.77
2018-02-15T02:14:58.125Z,12.43
2018-02-15T02:17:25.655Z,10.80
2018-02-15T02:19:53.171Z,11.70
2018-02-15T02:22:20.713Z,26.30
2018-02-15T02:24:48.235Z,9.03
2018-02-15T02:27:15.776Z,13.10
2018-02-15T02:29:43.295Z,14.20
2018-02-15T02:32:10.810Z,14.93
2018-02-15T02:34:38.340Z,17.97
2018-02-15T02:37:05.859Z,13.20
2018-02-15T02:39:33.376Z,15.90
2018-02-15T02:42:00.992Z,17.90
2018-02-15T02:44:28.527Z,14.83
2018-02-15T02:46:56.057Z,13.40
2018-02-15T02:49:23.596Z,13.70
2018-02-15T02:51:51.131Z,29.17
2018-02-15T02:54:18.662Z,60.93
2018-02-15T02:56:48.046Z,16.73
2018-02-15T02:59:15.592Z,16.37
2018-02-15T03:01:43.132Z,12.32
2018-02-15T03:04:10.671Z,20.05
2018-02-15T03:06:38.217Z,12.60
2018-02-15T03:09:05.781Z,17.30
2018-02-15T03:11:33.317Z,16.25
2018-02-15T03:14:00.918Z,12.37
2018-02-15T03:16:28.443Z,12.57
2018-02-15T03:18:55.971Z,20.43
2018-02-15T03:21:23.488Z,13.80
2018-02-15T03:23:51.048Z,11.00
2018-02-15T03:26:18.585Z,10.90
2018-02-15T03:28:46.135Z,16.70
2018-02-15T03:31:13.677Z,17.97
2018-02-15T03:33:41.200Z,13.33
2018-02-15T03:36:08.710Z,14.27
2018-02-15T03:38:36.225Z,15.47
2018-02-15T03:41:03.767Z,12.35
2018-02-15T03:43:31.300Z,12.40
2018-02-15T03:45:58.836Z,16.80
2018-02-15T03:48:26.397Z,14.95
2018-02-15T03:50:53.936Z,15.80
2018-02-15T03:53:21.452Z,14.80
2018-02-15T03:55:48.990Z,15.70
2018-02-15T03:58:16.529Z,13.75
2018-02-15T04:00:44.043Z,13.03
2018-02-15T04:03:11.570Z,12.70
2018-02-15T04:05:39.112Z,15.30
2018-02-15T04:08:06.663Z,14.00
2018-02-15T04:10:34.188Z,19.30
2018-02-15T04:13:01.740Z,11.40
2018-02-15T04:15:29.416Z,12.13
2018-02-15T04:17:56.930Z,14.25
2018-02-15T04:20:24.441Z,14.97
2018-02-15T04:22:51.991Z,15.63
2018-02-15T04:25:19.517Z,13.17
2018-02-15T04:27:47.050Z,14.30
2018-02-15T04:30:14.580Z,13.50
2018-02-15T04:32:42.111Z,12.87
2018-02-15T04:35:09.655Z,11.43
2018-02-15T04:37:37.165Z,14.00
2018-02-15T04:40:04.755Z,11.97
2018-02-15T04:42:32.250Z,11.23
2018-02-15T04:44:59.770Z,11.27
2018-02-15T04:47:27.283Z,12.30
2018-02-15T04:49:54.795Z,15.43
2018-02-15T04:52:22.331Z,11.83
2018-02-15T04:54:49.860Z,13.53
2018-02-15T04:57:17.421Z,15.83
2018-02-15T04:59:44.945Z,12.67
2018-02-15T05:02:12.486Z,14.07
2018-02-15T05:04:40.034Z,12.50
2018-02-15T05:07:07.560Z,10.03
2018-02-15T05:09:35.097Z,17.10
2018-02-15T05:12:02.666Z,10.70
2018-02-15T05:14:30.183Z,12.30
2018-02-15T05:16:57.712Z,12.70
2018-02-15T05:19:25.244Z,14.47
2018-02-15T05:21:52.779Z,11.63
2018-02-15T05:24:20.327Z,14.10
2018-02-15T05:26:47.844Z,11.63
2018-02-15T05:29:15.366Z,12.60
2018-02-15T05:31:42.887Z,15.57
2018-02-15T05:34:10.405Z,13.47
2018-02-15T05:36:37.916Z,12.07
2018-02-15T05:39:05.536Z,12.70
2018-02-15T05:41:33.055Z,12.60
2018-02-15T05:44:00.766Z,11.23
2018-02-15T05:46:28.300Z,19.73
2018-02-15T05:48:55.827Z,14.30
2018-02-15T05:51:23.336Z,13.27
2018-02-15T05:53:50.856Z,17.50
2018-02-15T05:56:18.376Z,10.93
2018-02-15T05:58:45.904Z,13.87
2018-02-15T06:01:13.430Z,15.93
2018-02-15T06:03:40.945Z,11.87
2018-02-15T06:06:08.633Z,11.93
2018-02-15T06:08:36.171Z,15.13
2018-02-15T06:11:03.725Z,12.30
2018-02-15T06:13:31.286Z,15.77
2018-02-15T06:15:58.838Z,13.13
2018-02-15T06:18:26.439Z,9.53
2018-02-15T06:20:54.750Z,15.87
2018-02-15T06:23:22.341Z,12.83
2018-02-15T06:25:49.886Z,13.87
2018-02-15T06:28:17.466Z,14.87
2018-02-15T06:30:45.241Z,16.13
2018-02-15T06:33:12.817Z,10.17
2018-02-15T06:35:40.398Z,12.90
2018-02-15T06:38:07.961Z,16.00
2018-02-15T06:40:35.556Z,16.47
2018-02-15T06:43:03.111Z,10.93
2018-02-15T06:45:30.692Z,11.50
2018-02-15T06:47:58.246Z,14.23
2018-02-15T06:50:25.801Z,13.30
2018-02-15T06:52:53.343Z,13.03
2018-02-15T06:55:20.892Z,14.70
2018-02-15T06:57:48.522Z,14.17
2018-02-15T07:00:16.096Z,12.00
2018-02-15T07:02:43.652Z,12.20
2018-02-15T07:05:11.201Z,11.13
2018-02-15T07:07:38.766Z,13.00
2018-02-15T07:10:06.334Z,11.40
2018-02-15T07:12:34.031Z,11.60
2018-02-15T07:15:01.606Z,11.30
2018-02-15T07:17:29.192Z,11.80
2018-02-15T07:19:56.748Z,14.03
2018-02-15T07:22:24.331Z,53.57
2018-02-15T07:24:51.903Z,21.43
2018-02-15T07:27:19.457Z,18.07
2018-02-15T07:29:47.016Z,59.73
2018-02-15T07:32:14.597Z,30.20
2018-02-15T07:34:42.152Z,35.73
2018-02-15T07:37:09.746Z,40.13
2018-02-15T07:39:37.327Z,21.50
2018-02-15T07:42:05.438Z,21.43
2018-02-15T07:44:33.007Z,25.13
2018-02-15T07:47:00.745Z,25.20
2018-02-15T07:49:28.374Z,21.10
2018-02-15T07:51:55.937Z,19.43
2018-02-15T07:54:23.518Z,22.43
2018-02-15T07:56:51.303Z,17.23
2018-02-15T07:59:18.901Z,117.97
2018-02-15T08:01:46.465Z,26.43
2018-02-15T08:04:14.026Z,26.23
2018-02-15T08:06:41.600Z,18.00
2018-02-15T08:09:09.231Z,22.20
2018-02-15T08:11:36.807Z,15.73
2018-02-15T08:14:04.357Z,14.83
2018-02-15T08:16:31.948Z,14.67
2018-02-15T08:18:59.522Z,17.80
2018-02-15T08:21:27.082Z,16.13
2018-02-15T08:23:54.675Z,15.83
2018-02-15T08:26:22.378Z,18.43
2018-02-15T08:28:49.947Z,15.53
2018-02-15T08:31:17.513Z,17.07
2018-02-15T08:33:45.096Z,16.80
2018-02-15T08:36:12.656Z,64.67
2018-02-15T08:38:40.201Z,39.43
2018-02-15T08:41:07.857Z,83.60
2018-02-15T08:43:35.443Z,120.03
2018-02-15T08:46:03.021Z,41.23
2018-02-15T08:48:30.807Z,39.60
2018-02-15T08:50:58.443Z,36.73
2018-02-15T08:53:26.037Z,27.70
2018-02-15T08:55:53.613Z,28.97
2018-02-15T08:58:21.211Z,36.60
2018-02-15T09:00:48.780Z,44.03
2018-02-15T09:03:16.413Z,63.10
2018-02-15T09:05:43.977Z,70.90
2018-02-15T09:08:11.611Z,30.80
2018-02-15T09:10:39.183Z,20.93
2018-02-15T09:13:06.767Z,25.97
2018-02-15T09:15:34.335Z,22.87
2018-02-15T09:18:02.247Z,18.00
2018-02-15T09:20:29.822Z,16.27
2018-02-15T09:22:57.391Z,17.10
2018-02-15T09:25:24.970Z,11.77
2018-02-15T09:27:52.561Z,12.10
2018-02-15T09:30:20.168Z,17.30
2018-02-15T09:32:47.828Z,13.97
2018-02-15T09:35:15.395Z,14.07
2018-02-15T09:37:42.990Z,13.60
2018-02-15T09:40:10.542Z,11.60
2018-02-15T09:42:38.113Z,16.30
2018-02-15T09:45:05.675Z,15.40
2018-02-15T09:47:33.298Z,15.80
2018-02-15T09:50:00.868Z,13.70
2018-02-15T09:52:28.468Z,13.47
2018-02-15T09:54:56.096Z,16.77
2018-02-15T09:57:25.923Z,14.63
2018-02-15T09:59:53.511Z,12.20
2018-02-15T10:02:22.057Z,13.50
2018-02-15T10:04:49.726Z,16.77
2018-02-15T10:07:17.300Z,10.93
2018-02-15T10:09:44.948Z,14.83
2018-02-15T10:12:12.512Z,11.27
2018-02-15T10:28:09.194Z,48.47
2018-02-15T10:40:45.237Z,31.20
2018-02-15T10:43:12.890Z,33.07
2018-02-15T10:45:40.562Z,36.10
2018-02-15T10:48:08.258Z,49.30
2018-02-15T10:50:36.109Z,38.80
2018-02-15T10:53:03.771Z,37.27
2018-02-15T10:55:31.467Z,24.83
2018-02-15T10:57:59.098Z,18.80
2018-02-15T11:00:32.573Z,18.57
2018-02-15T11:03:05.881Z,21.67
2018-02-15T11:05:34.462Z,20.87
2018-02-15T11:08:02.237Z,17.93
2018-02-15T11:10:29.896Z,21.90
2018-02-15T11:12:57.721Z,11.70
2018-02-15T11:15:25.837Z,14.60
2018-02-15T11:17:53.557Z,12.70
2018-02-15T11:20:21.211Z,12.93
2018-02-15T11:22:48.857Z,31.03
2018-02-15T11:25:16.501Z,32.37
2018-02-15T11:27:44.067Z,23.03
2018-02-15T11:30:11.635Z,31.63
2018-02-15T11:32:39.202Z,36.43
2018-02-15T11:35:06.986Z,25.90
2018-02-15T11:37:34.563Z,17.20
2018-02-15T11:40:04.056Z,20.37
2018-02-15T11:42:31.761Z,16.60
2018-02-15T11:44:59.596Z,11.97
2018-02-15T11:47:27.784Z,14.83
2018-02-15T11:49:56.052Z,11.63
2018-02-15T11:52:23.838Z,14.03
2018-02-15T11:54:51.536Z,13.60
2018-02-15T11:57:19.306Z,10.13
2018-02-15T11:59:46.918Z,13.63
2018-02-15T12:02:14.591Z,8.30
2018-02-15T12:04:42.236Z,8.57
2018-02-15T12:07:09.900Z,7.70
2018-02-15T12:09:37.686Z,7.57
2018-02-15T12:12:05.335Z,7.23
2018-02-15T12:14:33.327Z,7.10
2018-02-15T12:17:01.263Z,7.40
2018-02-15T12:19:29.526Z,8.20
2018-02-15T12:21:57.432Z,9.20
2018-02-15T12:24:25.535Z,7.70
2018-02-15T12:26:53.578Z,10.23
2018-02-15T12:29:21.301Z,8.97
2018-02-15T12:31:49.070Z,10.20
2018-02-15T12:34:16.880Z,12.80
2018-02-15T12:36:44.542Z,12.90
2018-02-15T12:39:12.113Z,16.37
2018-02-15T12:44:41.579Z,15.30
2018-02-15T12:47:09.393Z,11.53
2018-02-15T12:49:37.222Z,13.57
2018-02-15T12:52:05.377Z,12.03
2018-02-15T12:54:33.208Z,13.27
2018-02-15T12:57:00.973Z,23.10
2018-02-15T12:59:28.725Z,12.90
2018-02-15T13:01:56.297Z,19.20
2018-02-15T13:04:24.013Z,14.05
2018-02-15T13:06:51.707Z,22.53
2018-02-15T13:09:19.296Z,19.60
2018-02-15T13:11:47.098Z,34.77
2018-02-15T13:14:14.676Z,24.17
2018-02-15T13:17:00.203Z,25.33
2018-02-15T13:22:42.051Z,25.20
2018-02-15T13:25:09.653Z,22.73
2018-02-15T13:27:49.192Z,24.33
2018-02-15T13:30:16.956Z,15.77
2018-02-15T13:32:44.762Z,15.23
2018-02-15T13:35:12.379Z,17.00
2018-02-15T13:37:40.208Z,13.07
2018-02-15T13:40:07.917Z,15.60
2018-02-15T13:42:35.713Z,13.90
2018-02-15T13:45:03.467Z,12.03
2018-02-15T13:47:31.048Z,12.77
2018-02-15T13:49:59.507Z,13.80
2018-02-15T13:52:28.274Z,13.03
2018-02-15T13:54:55.986Z,15.90
2018-02-15T13:57:23.696Z,18.33
2018-02-15T13:59:51.608Z,12.93
2018-02-15T14:02:19.362Z,12.70
2018-02-15T14:04:46.972Z,13.77
2018-02-15T14:07:15.537Z,16.07
2018-02-15T14:09:43.216Z,20.60
2018-02-15T14:12:11.173Z,19.45
2018-02-15T14:14:38.758Z,12.27
2018-02-15T14:17:06.496Z,12.52
2018-02-15T14:19:34.062Z,20.10
2018-02-15T14:22:01.808Z,13.30
2018-02-15T14:24:29.506Z,13.57
2018-02-15T14:26:57.323Z,23.07
2018-02-15T14:29:24.989Z,14.27
2018-02-15T14:31:52.587Z,15.52
2018-02-15T14:34:20.536Z,16.20
2018-02-15T14:36:48.106Z,16.63
2018-02-15T14:39:15.803Z,14.48
2018-02-15T14:41:43.598Z,15.40
2018-02-15T14:44:11.243Z,14.53
2018-02-15T14:46:38.923Z,18.33
2018-02-15T14:49:06.651Z,16.57
2018-02-15T14:51:34.518Z,15.33
2018-02-15T14:54:02.857Z,16.10
2018-02-15T14:56:30.477Z,17.37
2018-02-15T14:58:59.037Z,22.33
2018-02-15T15:01:26.609Z,24.30
2018-02-15T15:03:54.261Z,24.83
2018-02-15T15:06:21.856Z,17.90
2018-02-15T15:08:49.488Z,18.60
2018-02-15T15:11:17.136Z,18.63
2018-02-15T15:13:44.927Z,15.53
2018-02-15T15:16:12.558Z,15.97
2018-02-15T15:18:40.271Z,21.90
2018-02-15T15:21:08.061Z,136.20
2018-02-15T15:23:36.142Z,242.53
2018-02-15T15:26:03.841Z,221.67
2018-02-15T15:28:31.467Z,198.62
2018-02-15T15:30:59.197Z,100.60
2018-02-15T15:33:26.958Z,37.23
2018-02-15T15:35:54.610Z,28.60
2018-02-15T15:38:22.281Z,19.60
2018-02-15T15:40:49.986Z,16.83
2018-02-15T15:43:17.737Z,13.93
2018-02-15T15:45:45.476Z,16.37
2018-02-15T15:48:13.068Z,17.97
2018-02-15T15:50:40.832Z,44.60
2018-02-15T15:53:08.447Z,21.13
2018-02-15T15:55:36.179Z,20.27
2018-02-15T15:58:03.971Z,17.97
2018-02-15T16:00:31.678Z,21.60
2018-02-15T16:02:59.407Z,18.17
2018-02-15T16:05:27.188Z,19.50
2018-02-15T16:07:55.049Z,19.83
2018-02-15T16:10:22.851Z,19.63
2018-02-15T16:12:50.447Z,17.93
2018-02-15T16:15:18.728Z,24.67
2018-02-15T16:17:46.407Z,21.20
2018-02-15T16:20:14.038Z,27.43
2018-02-15T16:22:41.857Z,19.00
2018-02-15T16:25:09.467Z,20.23
2018-02-15T16:27:37.053Z,65.47
2018-02-15T16:30:04.638Z,28.20
2018-02-15T16:32:32.217Z,23.27
2018-02-15T16:34:59.781Z,24.00
2018-02-15T16:37:27.935Z,17.70
2018-02-15T16:39:55.686Z,19.20
2018-02-15T16:42:23.299Z,28.20
2018-02-15T16:44:51.016Z,20.90
2018-02-15T16:47:18.742Z,23.57
2018-02-15T16:49:46.512Z,27.80
2018-02-15T16:52:15.018Z,32.90
2018-02-15T16:54:42.716Z,29.90
2018-02-15T16:57:10.480Z,24.35
2018-02-15T16:59:38.217Z,28.50
2018-02-15T17:02:06.113Z,24.10
2018-02-15T17:04:34.777Z,24.13
2018-02-15T17:07:02.593Z,24.13
2018-02-15T17:09:30.301Z,23.30
2018-02-15T17:11:57.907Z,24.77
2018-02-15T17:14:25.912Z,33.20
2018-02-15T17:17:24.836Z,26.43
2018-02-15T17:19:52.483Z,21.07
2018-02-15T17:22:20.217Z,19.80
2018-02-15T17:24:48.036Z,19.40
2018-02-15T17:27:15.871Z,19.20
2018-02-15T17:29:44.253Z,19.87
2018-02-15T17:32:11.882Z,16.47
2018-02-15T17:34:39.583Z,17.87
2018-02-15T17:37:07.321Z,16.25
2018-02-15T17:39:35.193Z,18.30
2018-02-15T17:42:02.798Z,20.73
2018-02-15T17:44:31.873Z,21.97
2018-02-15T17:46:59.808Z,17.37
2018-02-15T17:49:28.787Z,21.95
2018-02-15T17:54:38.607Z,21.00
2018-02-15T18:00:27.163Z,19.90
2018-02-15T18:02:55.408Z,21.93
2018-02-15T18:05:23.021Z,18.70
2018-02-15T18:07:50.729Z,17.90
2018-02-15T18:10:18.403Z,23.38
2018-02-15T18:12:46.291Z,15.88
2018-02-15T18:15:13.973Z,18.30
2018-02-15T18:17:41.708Z,26.00
2018-02-15T18:20:09.573Z,19.70
2018-02-15T18:22:37.754Z,21.40
2018-02-15T18:25:05.520Z,16.17
2018-02-15T18:27:35.209Z,17.47
2018-02-15T18:30:03.057Z,20.33
2018-02-15T18:32:30.851Z,17.10
2018-02-15T18:35:06.208Z,18.67
2018-02-15T18:37:34.157Z,16.07
2018-02-15T18:40:01.862Z,15.83
2018-02-15T18:42:29.456Z,17.40
2018-02-15T18:44:57.128Z,18.77
2018-02-15T18:47:24.808Z,18.83
2018-02-15T18:49:52.492Z,17.70
2018-02-15T18:52:20.970Z,15.97
2018-02-15T18:54:49.222Z,23.60
2018-02-15T18:57:17.084Z,40.47
2018-02-15T18:59:44.809Z,19.67
2018-02-15T19:02:12.512Z,17.37
2018-02-15T19:04:40.603Z,14.80
2018-02-15T19:07:08.223Z,19.00
2018-02-15T19:09:36.007Z,17.33
2018-02-15T19:12:03.691Z,16.73
2018-02-15T19:14:31.288Z,15.68
2018-02-15T19:16:58.914Z,14.90
2018-02-15T19:19:26.740Z,17.47
2018-02-15T19:21:54.900Z,16.23
2018-02-15T19:24:22.673Z,16.57
2018-02-15T19:26:51.765Z,15.73
2018-02-15T19:29:19.892Z,16.60
2018-02-15T19:31:47.665Z,19.52
2018-02-15T19:34:15.372Z,20.35
2018-02-15T19:36:43.691Z,18.13
2018-02-15T19:39:11.340Z,16.43
2018-02-15T19:41:39.012Z,16.87
2018-02-15T19:44:06.678Z,15.60
2018-02-15T19:46:34.688Z,17.40
2018-02-15T19:49:03.052Z,17.77
2018-02-15T19:51:31.038Z,15.60
2018-02-15T19:53:58.971Z,17.17
2018-02-15T19:56:27.086Z,18.90
2018-02-15T19:58:55.974Z,19.50
2018-02-15T20:01:24.669Z,16.73
2018-02-15T20:03:52.347Z,20.03
2018-02-15T20:06:21.125Z,23.27
2018-02-15T20:08:49.026Z,23.10
2018-02-15T20:11:16.931Z,18.83
2018-02-15T20:13:44.633Z,24.10
2018-02-15T20:16:12.587Z,31.10
2018-02-15T20:18:40.185Z,24.92
2018-02-15T20:21:08.045Z,25.53
2018-02-15T20:23:35.639Z,25.60
2018-02-15T20:26:08.842Z,29.13
2018-02-15T20:28:36.743Z,23.83
2018-02-15T20:31:05.042Z,22.60
2018-02-15T20:33:32.802Z,28.43
2018-02-15T20:36:00.567Z,20.97
2018-02-15T20:38:33.821Z,20.67
2018-02-15T20:41:01.823Z,19.77
2018-02-15T20:43:29.594Z,22.10
2018-02-15T20:45:57.363Z,21.90
2018-02-15T20:48:25.001Z,20.90
2018-02-15T20:50:58.486Z,25.87
2018-02-15T20:56:28.594Z,26.97
2018-02-15T20:58:56.322Z,34.03
2018-02-15T21:01:24.029Z,35.37
2018-02-15T21:03:51.797Z,36.57
2018-02-15T21:06:19.622Z,33.43
2018-02-15T21:12:18.142Z,34.53
2018-02-15T21:14:46.014Z,35.23
2018-02-15T21:17:15.005Z,38.33
2018-02-15T21:19:42.936Z,39.07
2018-02-15T21:22:10.734Z,33.87
2018-02-15T21:24:38.731Z,30.80
2018-02-15T21:27:07.062Z,34.83
2018-02-15T21:29:35.037Z,35.20
2018-02-15T21:32:02.721Z,36.03
2018-02-15T21:34:30.428Z,34.03
2018-02-15T21:36:58.141Z,32.77
2018-02-15T21:39:26.237Z,28.80
2018-02-15T21:41:53.986Z,32.70
2018-02-15T21:44:21.843Z,27.00
2018-02-15T21:46:49.557Z,26.07
2018-02-15T21:49:17.193Z,35.37
2018-02-15T21:51:44.823Z,25.50
2018-02-15T21:54:13.254Z,25.97
2018-02-15T21:56:40.896Z,30.33
2018-02-15T21:59:08.821Z,31.93
2018-02-15T22:01:36.613Z,33.47
2018-02-15T22:04:04.367Z,28.47
2018-02-15T22:06:32.242Z,27.77
2018-02-15T22:09:00.018Z,32.73
2018-02-15T22:11:28.148Z,24.50
2018-02-15T22:13:55.915Z,26.53
2018-02-15T22:16:23.892Z,24.20
2018-02-15T22:18:51.807Z,24.10
2018-02-15T22:21:19.582Z,23.90
2018-02-15T22:23:47.433Z,26.63
2018-02-15T22:26:15.210Z,21.80
2018-02-15T22:28:43.241Z,36.27
2018-02-15T22:31:11.303Z,26.87
2018-02-15T22:33:39.024Z,39.70
2018-02-15T22:36:07.186Z,27.40
2018-02-15T22:38:34.986Z,28.77
2018-02-15T22:41:02.602Z,28.00
2018-02-15T22:43:30.128Z,27.17
2018-02-15T22:45:57.758Z,36.35
2018-02-15T22:48:25.307Z,30.77
2018-02-15T22:50:52.831Z,33.43
2018-02-15T22:53:20.383Z,33.10
2018-02-15T22:55:48.028Z,33.03
2018-02-15T22:58:15.621Z,45.57
2018-02-15T23:00:44.412Z,41.07
2018-02-15T23:03:12.035Z,39.30
2018-02-15T23:05:39.568Z,38.57
2018-02-15T23:08:07.221Z,43.55
2018-02-15T23:10:36.952Z,29.87
2018-02-15T23:13:04.742Z,36.97
2018-02-15T23:15:32.408Z,34.10
2018-02-15T23:18:00.348Z,28.20
2018-02-15T23:20:27.985Z,33.10
2018-02-15T23:22:56.307Z,34.50
2018-02-15T23:25:23.947Z,30.30
2018-02-15T23:27:52.383Z,30.43
2018-02-15T23:30:19.933Z,28.10
2018-02-15T23:32:47.446Z,28.70
2018-02-15T23:35:15.227Z,28.83
2018-02-15T23:37:42.886Z,26.53
2018-02-15T23:40:10.662Z,31.93
2018-02-15T23:42:38.266Z,26.47
2018-02-15T23:45:05.948Z,28.53
2018-02-15T23:47:33.615Z,27.77
2018-02-15T23:50:01.352Z,30.73
2018-02-15T23:52:28.987Z,28.00
2018-02-15T23:54:56.762Z,32.65
2018-02-15T23:57:24.496Z,32.40
2018-02-15T23:59:52.246Z,31.33
